createdAt,value
2019-04-23T00:00:13.512Z,0.00
2019-04-23T00:00:56.319Z,0.00
2019-04-23T00:01:49.457Z,0.00
2019-04-23T00:02:51.129Z,0.00
2019-04-23T00:03:47.530Z,0.00
2019-04-23T00:04:47.954Z,0.00
2019-04-23T00:05:48.525Z,0.00
2019-04-23T00:07:10.721Z,0.00
2019-04-23T00:09:04.125Z,0.00
2019-04-23T00:09:46.956Z,0.00
2019-04-23T00:10:53.377Z,0.00
2019-04-23T00:11:48.271Z,0.00
2019-04-23T00:12:49.662Z,0.00
2019-04-23T00:13:50.231Z,0.00
2019-04-23T00:14:55.903Z,0.00
2019-04-23T00:15:53.166Z,0.00
2019-04-23T00:16:50.951Z,0.00
2019-04-23T00:18:08.981Z,0.00
2019-04-23T00:18:58.914Z,0.00
2019-04-23T00:19:48.635Z,0.00
2019-04-23T00:20:52.794Z,0.00
2019-04-23T00:21:48.290Z,0.00
2019-04-23T00:22:53.291Z,0.00
2019-04-23T00:23:57.111Z,0.00
2019-04-23T00:26:03.969Z,0.00
2019-04-23T00:26:53.126Z,0.00
2019-04-23T00:27:49.869Z,0.00
2019-04-23T00:28:57.166Z,0.00
2019-04-23T00:29:53.429Z,0.00
2019-04-23T00:31:06.827Z,0.00
2019-04-23T00:31:53.289Z,0.00
2019-04-23T00:32:48.102Z,0.00
2019-04-23T00:33:42.281Z,0.00
2019-04-23T00:36:02.701Z,0.00
2019-04-23T00:36:52.527Z,0.00
2019-04-23T00:37:49.463Z,0.00
2019-04-23T00:38:49.709Z,0.00
2019-04-23T00:40:03.253Z,0.00
2019-04-23T00:41:02.901Z,0.00
2019-04-23T00:41:54.991Z,0.00
2019-04-23T00:42:47.893Z,0.00
2019-04-23T00:43:49.018Z,0.00
2019-04-23T00:44:51.558Z,0.00
2019-04-23T00:46:48.964Z,0.00
2019-04-23T00:47:52.553Z,0.00
2019-04-23T00:48:52.246Z,0.00
2019-04-23T00:49:51.258Z,0.00
2019-04-23T00:50:53.029Z,0.00
2019-04-23T00:51:54.679Z,0.00
2019-04-23T00:52:46.827Z,0.00
2019-04-23T00:53:43.794Z,0.00
2019-04-23T00:54:55.215Z,0.00
2019-04-23T00:55:47.728Z,0.00
2019-04-23T00:57:07.410Z,0.00
2019-04-23T00:57:50.462Z,0.00
2019-04-23T00:58:47.671Z,0.00
2019-04-23T00:59:57.762Z,0.00
2019-04-23T01:02:00.982Z,0.00
2019-04-23T01:02:53.319Z,0.00
2019-04-23T01:03:50.709Z,0.00
2019-04-23T01:04:47.679Z,0.00
2019-04-23T01:06:52.295Z,0.00
2019-04-23T01:08:45.266Z,0.00
2019-04-23T01:09:55.925Z,0.00
2019-04-23T01:10:52.628Z,0.00
2019-04-23T01:11:48.134Z,0.00
2019-04-23T01:13:50.935Z,0.00
2019-04-23T01:14:49.424Z,0.00
2019-04-23T01:16:42.678Z,0.00
2019-04-23T01:18:51.474Z,0.00
2019-04-23T01:20:06.375Z,0.00
2019-04-23T01:20:51.901Z,0.00
2019-04-23T01:21:26.695Z,0.00
2019-04-23T01:22:27.438Z,0.00
2019-04-23T01:23:31.987Z,0.00
2019-04-23T01:24:29.752Z,0.00
2019-04-23T01:25:35.090Z,0.00
2019-04-23T01:26:42.161Z,0.00
2019-04-23T01:28:55.822Z,0.00
2019-04-23T01:29:48.055Z,0.00
2019-04-23T01:30:55.367Z,0.00
2019-04-23T01:31:53.109Z,0.00
2019-04-23T01:32:48.444Z,0.00
2019-04-23T01:33:51.789Z,0.00
2019-04-23T01:34:59.425Z,0.00
2019-04-23T01:36:03.062Z,0.00
2019-04-23T01:36:52.220Z,0.00
2019-04-23T01:37:47.311Z,0.00
2019-04-23T01:38:55.940Z,0.00
2019-04-23T01:39:53.194Z,0.00
2019-04-23T01:40:47.204Z,0.00
2019-04-23T01:42:01.902Z,0.00
2019-04-23T01:42:49.306Z,0.00
2019-04-23T01:44:04.169Z,0.00
2019-04-23T01:45:49.136Z,0.00
2019-04-23T01:46:57.074Z,0.00
2019-04-23T01:48:52.146Z,0.00
2019-04-23T01:50:54.963Z,0.00
2019-04-23T01:51:53.184Z,0.00
2019-04-23T01:53:05.611Z,0.00
2019-04-23T01:53:49.696Z,0.00
2019-04-23T01:54:55.380Z,0.00
2019-04-23T01:55:51.087Z,0.00
2019-04-23T01:56:47.304Z,0.00
2019-04-23T01:58:53.916Z,0.00
2019-04-23T01:59:58.418Z,0.00
2019-04-23T02:00:53.995Z,0.00
2019-04-23T02:01:50.369Z,0.00
2019-04-23T02:02:57.521Z,0.00
2019-04-23T02:03:56.100Z,0.00
2019-04-23T02:04:52.650Z,0.00
2019-04-23T02:05:55.742Z,0.00
2019-04-23T02:06:51.754Z,0.00
2019-04-23T02:08:56.830Z,0.00
2019-04-23T02:09:58.988Z,0.00
2019-04-23T02:11:55.177Z,0.00
2019-04-23T02:12:55.745Z,0.00
2019-04-23T02:14:57.546Z,0.00
2019-04-23T02:16:03.002Z,0.00
2019-04-23T02:16:53.904Z,0.00
2019-04-23T02:18:02.454Z,0.00
2019-04-23T02:19:14.682Z,0.00
2019-04-23T02:19:59.529Z,0.00
2019-04-23T02:20:53.686Z,0.00
2019-04-23T02:21:55.022Z,0.00
2019-04-23T02:22:58.692Z,0.00
2019-04-23T02:23:47.996Z,0.00
2019-04-23T02:24:59.360Z,0.00
2019-04-23T02:26:50.811Z,0.00
2019-04-23T02:28:03.139Z,0.00
2019-04-23T02:28:51.083Z,0.00
2019-04-23T02:30:05.883Z,0.00
2019-04-23T02:31:12.119Z,0.00
2019-04-23T02:33:10.462Z,0.00
2019-04-23T02:34:01.169Z,0.00
2019-04-23T02:35:29.671Z,0.00
2019-04-23T02:35:58.670Z,0.00
2019-04-23T02:40:08.236Z,0.00
2019-04-23T02:41:04.585Z,0.00
2019-04-23T02:42:15.813Z,0.00
2019-04-23T02:43:09.242Z,0.00
2019-04-23T02:44:04.927Z,0.00
2019-04-23T02:44:56.426Z,0.00
2019-04-23T02:46:04.364Z,0.00
2019-04-23T02:47:17.124Z,0.00
2019-04-23T02:48:10.877Z,0.00
2019-04-23T02:50:09.349Z,0.00
2019-04-23T02:51:10.826Z,0.00
2019-04-23T02:51:59.304Z,0.00
2019-04-23T02:53:07.346Z,0.00
2019-04-23T02:54:04.746Z,0.00
2019-04-23T02:55:02.584Z,0.00
2019-04-23T02:56:04.360Z,0.00
2019-04-23T02:58:01.234Z,0.00
2019-04-23T02:59:07.348Z,0.00
2019-04-23T03:00:11.750Z,0.00
2019-04-23T03:02:09.511Z,0.00
2019-04-23T03:03:23.195Z,0.00
2019-04-23T03:04:00.031Z,0.00
2019-04-23T03:04:57.612Z,0.00
2019-04-23T03:08:01.440Z,0.00
2019-04-23T03:08:50.552Z,0.00
2019-04-23T03:10:00.460Z,0.00
2019-04-23T03:11:23.450Z,0.00
2019-04-23T03:12:00.678Z,0.00
2019-04-23T03:13:22.922Z,0.00
2019-04-23T03:14:01.085Z,0.00
2019-04-23T03:15:11.147Z,0.00
2019-04-23T03:16:12.136Z,0.00
2019-04-23T03:16:56.675Z,0.00
2019-04-23T03:18:12.174Z,0.00
2019-04-23T03:20:07.946Z,0.00
2019-04-23T03:21:15.581Z,0.00
2019-04-23T03:21:57.675Z,0.00
2019-04-23T03:23:03.602Z,0.00
2019-04-23T03:24:01.565Z,0.00
2019-04-23T03:26:04.308Z,0.00
2019-04-23T03:27:08.109Z,0.00
2019-04-23T03:27:59.647Z,0.00
2019-04-23T03:29:04.319Z,0.00
2019-04-23T03:30:52.600Z,0.00
2019-04-23T03:32:31.067Z,0.00
2019-04-23T03:38:13.424Z,0.00
2019-04-23T03:40:09.897Z,0.00
2019-04-23T03:41:06.945Z,0.00
2019-04-23T03:42:02.031Z,0.00
2019-04-23T03:43:46.875Z,0.00
2019-04-23T03:46:12.210Z,0.00
2019-04-23T03:47:56.165Z,5.63
2019-04-23T03:48:53.116Z,5.63
2019-04-23T03:50:14.739Z,5.63
2019-04-23T03:50:52.798Z,5.63
2019-04-23T03:52:07.524Z,5.63
2019-04-23T03:52:55.183Z,5.63
2019-04-23T03:54:16.709Z,5.63
2019-04-23T03:54:50.759Z,5.63
2019-04-23T03:56:05.052Z,5.63
2019-04-23T03:57:54.087Z,11.25
2019-04-23T03:59:29.098Z,11.25
2019-04-23T04:00:02.398Z,11.25
2019-04-23T04:01:00.883Z,11.25
2019-04-23T04:03:55.031Z,16.88
2019-04-23T04:04:22.725Z,16.88
2019-04-23T04:04:51.757Z,16.88
2019-04-23T04:08:07.391Z,22.50
2019-04-23T04:09:06.291Z,22.50
2019-04-23T04:09:51.764Z,22.50
2019-04-23T04:11:02.536Z,22.50
2019-04-23T04:11:56.699Z,22.50
2019-04-23T04:12:56.286Z,28.13
2019-04-23T04:14:27.618Z,28.13
2019-04-23T04:17:01.313Z,33.75
2019-04-23T04:18:11.025Z,33.75
2019-04-23T04:19:56.695Z,39.38
2019-04-23T04:21:03.273Z,39.38
2019-04-23T04:21:58.484Z,39.38
2019-04-23T04:25:02.058Z,50.63
2019-04-23T04:25:56.325Z,50.63
2019-04-23T04:28:01.322Z,56.25
2019-04-23T04:29:01.339Z,56.25
2019-04-23T04:30:01.040Z,56.25
2019-04-23T04:30:54.268Z,61.88
2019-04-23T04:36:07.841Z,73.13
2019-04-23T04:37:26.826Z,73.13
2019-04-23T04:38:25.670Z,73.13
2019-04-23T04:38:57.181Z,78.75
2019-04-23T04:41:58.671Z,84.38
2019-04-23T04:43:04.814Z,84.38
2019-04-23T04:44:17.141Z,90.00
2019-04-23T04:45:09.640Z,95.63
2019-04-23T04:47:49.299Z,112.50
2019-04-23T04:49:08.071Z,118.13
2019-04-23T04:51:06.157Z,135.00
2019-04-23T04:52:16.805Z,146.25
2019-04-23T04:54:55.937Z,174.38
2019-04-23T04:56:12.420Z,185.63
2019-04-23T04:58:12.463Z,202.50
2019-04-23T05:02:09.440Z,213.75
2019-04-23T05:03:17.957Z,219.38
2019-04-23T05:03:43.259Z,219.38
2019-04-23T05:07:56.303Z,230.63
2019-04-23T05:09:04.239Z,236.25
2019-04-23T05:11:04.685Z,236.25
2019-04-23T05:12:00.450Z,241.88
2019-04-23T05:13:12.086Z,241.88
2019-04-23T05:14:08.298Z,247.50
2019-04-23T05:15:51.834Z,253.13
2019-04-23T05:16:57.367Z,253.13
2019-04-23T05:18:09.368Z,258.75
2019-04-23T05:19:09.601Z,258.75
2019-04-23T05:21:00.223Z,270.00
2019-04-23T05:22:01.019Z,270.00
2019-04-23T05:23:06.204Z,275.63
2019-04-23T05:23:55.556Z,275.63
2019-04-23T05:25:06.551Z,281.25
2019-04-23T05:25:55.957Z,286.88
2019-04-23T05:26:48.133Z,292.50
2019-04-23T05:28:05.633Z,298.13
2019-04-23T05:29:57.364Z,309.38
2019-04-23T05:30:59.987Z,320.63
2019-04-23T05:31:46.559Z,326.25
2019-04-23T05:33:02.620Z,337.50
2019-04-23T05:34:57.651Z,376.88
2019-04-23T05:37:06.818Z,483.75
2019-04-23T05:38:13.516Z,517.50
2019-04-23T05:40:15.630Z,562.50
2019-04-23T05:40:55.825Z,573.75
2019-04-23T05:42:04.438Z,596.25
2019-04-23T05:42:51.998Z,618.75
2019-04-23T05:43:57.371Z,646.88
2019-04-23T05:45:57.713Z,686.25
2019-04-23T05:46:52.155Z,680.63
2019-04-23T05:48:04.609Z,680.63
2019-04-23T05:48:52.281Z,703.13
2019-04-23T05:49:55.068Z,759.38
2019-04-23T05:50:59.091Z,798.75
2019-04-23T05:51:57.347Z,804.38
2019-04-23T05:52:56.909Z,793.13
2019-04-23T05:53:53.539Z,770.63
2019-04-23T05:54:56.238Z,787.50
2019-04-23T05:55:55.371Z,810.00
2019-04-23T05:56:53.910Z,821.25
2019-04-23T05:57:52.462Z,838.13
2019-04-23T05:58:52.688Z,871.88
2019-04-23T05:59:56.483Z,883.13
2019-04-23T06:00:56.887Z,911.25
2019-04-23T06:03:02.600Z,933.75
2019-04-23T06:03:56.714Z,945.00
2019-04-23T06:04:49.909Z,939.38
2019-04-23T06:05:54.067Z,922.50
2019-04-23T06:08:53.239Z,1051.88
2019-04-23T06:09:52.077Z,1141.88
2019-04-23T06:10:58.774Z,1192.50
2019-04-23T06:12:55.802Z,1248.75
2019-04-23T06:14:02.083Z,1237.50
2019-04-23T06:14:53.814Z,1215.00
2019-04-23T06:15:52.103Z,1203.75
2019-04-23T06:17:24.234Z,1271.25
2019-04-23T06:17:57.771Z,1327.50
2019-04-23T06:18:57.592Z,1316.25
2019-04-23T06:19:57.037Z,1299.38
2019-04-23T06:20:55.542Z,1237.50
2019-04-23T06:22:04.423Z,1226.25
2019-04-23T06:23:52.104Z,1344.38
2019-04-23T06:26:19.922Z,1485.00
2019-04-23T06:26:54.245Z,1479.38
2019-04-23T06:27:57.570Z,1468.13
2019-04-23T06:28:56.106Z,1445.63
2019-04-23T06:29:50.145Z,1462.50
2019-04-23T06:30:54.404Z,1501.88
2019-04-23T06:31:54.788Z,1501.88
2019-04-23T06:32:55.231Z,1490.63
2019-04-23T06:33:54.658Z,1513.13
2019-04-23T06:35:50.375Z,1620.00
2019-04-23T06:36:50.985Z,1535.63
2019-04-23T06:38:12.472Z,1400.63
2019-04-23T06:39:49.378Z,1333.13
2019-04-23T06:40:58.703Z,1400.63
2019-04-23T06:42:56.231Z,1563.75
2019-04-23T06:44:00.549Z,1563.75
2019-04-23T06:44:51.770Z,1591.88
2019-04-23T06:45:49.804Z,1665.00
2019-04-23T06:47:56.414Z,1749.38
2019-04-23T06:48:47.631Z,1771.88
2019-04-23T06:49:50.898Z,1805.63
2019-04-23T06:50:58.183Z,1828.13
2019-04-23T06:52:00.926Z,1861.88
2019-04-23T06:52:50.373Z,1884.38
2019-04-23T06:53:55.115Z,1906.88
2019-04-23T06:54:56.435Z,1867.50
2019-04-23T06:57:00.908Z,1698.75
2019-04-23T06:57:48.150Z,1715.63
2019-04-23T06:58:48.941Z,1721.25
2019-04-23T06:59:52.159Z,1721.25
2019-04-23T07:00:57.019Z,1715.63
2019-04-23T07:02:01.071Z,1732.50
2019-04-23T07:02:53.830Z,1783.13
2019-04-23T07:03:51.838Z,1906.88
2019-04-23T07:05:02.202Z,2025.00
2019-04-23T07:06:03.053Z,2120.63
2019-04-23T07:07:50.014Z,2160.00
2019-04-23T07:09:52.090Z,2025.00
2019-04-23T07:10:54.295Z,1974.38
2019-04-23T07:11:49.727Z,1940.63
2019-04-23T07:13:02.735Z,1996.88
2019-04-23T07:13:55.699Z,2064.38
2019-04-23T07:14:55.449Z,2120.63
2019-04-23T07:15:53.713Z,2109.38
2019-04-23T07:16:52.751Z,2137.50
2019-04-23T07:17:48.985Z,2160.00
2019-04-23T07:19:48.120Z,2221.88
2019-04-23T07:20:50.601Z,2266.88
2019-04-23T07:21:55.934Z,2311.88
2019-04-23T07:22:57.044Z,2345.63
2019-04-23T07:24:52.771Z,2328.75
2019-04-23T07:26:00.137Z,2334.38
2019-04-23T07:26:43.498Z,2379.38
2019-04-23T07:27:51.217Z,2396.25
2019-04-23T07:29:56.805Z,2216.25
2019-04-23T07:30:51.587Z,2188.13
2019-04-23T07:31:53.890Z,2233.13
2019-04-23T07:32:49.586Z,2323.13
2019-04-23T07:33:57.606Z,2401.88
2019-04-23T07:34:57.428Z,2491.88
2019-04-23T07:35:56.387Z,2587.50
2019-04-23T07:36:47.435Z,2643.75
2019-04-23T07:37:57.221Z,2660.63
2019-04-23T07:39:01.483Z,2655.00
2019-04-23T07:39:58.986Z,2649.38
2019-04-23T07:40:49.724Z,2626.88
2019-04-23T07:41:54.861Z,2514.38
2019-04-23T07:42:55.128Z,2396.25
2019-04-23T07:43:54.453Z,2351.25
2019-04-23T07:45:58.793Z,2435.63
2019-04-23T07:47:05.358Z,2458.13
2019-04-23T07:48:03.887Z,2520.00
2019-04-23T07:48:48.012Z,2542.50
2019-04-23T07:50:03.811Z,1620.00
2019-04-23T07:50:52.028Z,2424.38
2019-04-23T07:52:01.116Z,1260.00
2019-04-23T07:52:58.662Z,1395.00
2019-04-23T07:53:52.056Z,2025.00
2019-04-23T07:54:52.596Z,1614.38
2019-04-23T07:55:56.875Z,1591.88
2019-04-23T07:56:54.259Z,2750.63
2019-04-23T07:58:00.240Z,489.38
2019-04-23T07:58:44.678Z,1777.50
2019-04-23T07:59:56.285Z,360.00
2019-04-23T08:00:51.357Z,388.13
2019-04-23T08:02:01.284Z,354.38
2019-04-23T08:02:58.207Z,427.50
2019-04-23T08:05:00.878Z,236.25
2019-04-23T08:05:49.543Z,483.75
2019-04-23T08:06:55.953Z,286.88
2019-04-23T08:07:49.831Z,286.88
2019-04-23T08:08:50.826Z,922.50
2019-04-23T08:09:53.310Z,1535.63
2019-04-23T08:11:19.915Z,247.50
2019-04-23T08:11:52.432Z,320.63
2019-04-23T08:12:56.264Z,990.00
2019-04-23T08:13:58.660Z,1271.25
2019-04-23T08:14:53.227Z,1035.00
2019-04-23T08:17:04.069Z,433.13
2019-04-23T08:17:56.108Z,1856.25
2019-04-23T08:18:54.403Z,967.50
2019-04-23T08:19:56.250Z,241.88
2019-04-23T08:20:53.887Z,253.13
2019-04-23T08:21:58.383Z,348.75
2019-04-23T08:22:53.559Z,1383.75
2019-04-23T08:23:58.618Z,1153.13
2019-04-23T08:25:03.284Z,2373.75
2019-04-23T08:26:04.117Z,3015.00
2019-04-23T08:26:58.318Z,2362.50
2019-04-23T08:27:53.520Z,2311.88
2019-04-23T08:29:43.924Z,540.00
2019-04-23T08:30:56.719Z,1642.50
2019-04-23T08:31:52.023Z,427.50
2019-04-23T08:32:52.168Z,1518.75
2019-04-23T08:33:57.450Z,298.13
2019-04-23T08:34:57.806Z,208.13
2019-04-23T08:35:58.891Z,213.75
2019-04-23T08:36:56.689Z,213.75
2019-04-23T08:38:04.578Z,202.50
2019-04-23T08:38:51.243Z,208.13
2019-04-23T08:39:47.145Z,208.13
2019-04-23T08:41:02.553Z,202.50
2019-04-23T08:42:10.997Z,202.50
2019-04-23T08:42:52.796Z,208.13
2019-04-23T08:45:03.464Z,202.50
2019-04-23T08:45:46.268Z,202.50
2019-04-23T08:47:52.913Z,196.88
2019-04-23T08:49:01.811Z,196.88
2019-04-23T08:50:50.845Z,191.25
2019-04-23T08:52:53.873Z,191.25
2019-04-23T08:54:01.404Z,191.25
2019-04-23T08:54:58.086Z,191.25
2019-04-23T08:56:55.064Z,196.88
2019-04-23T08:57:47.090Z,196.88
2019-04-23T08:58:48.959Z,191.25
2019-04-23T08:59:48.605Z,191.25
2019-04-23T09:02:09.315Z,191.25
2019-04-23T09:02:50.584Z,191.25
2019-04-23T09:03:45.845Z,191.25
2019-04-23T09:04:55.362Z,191.25
2019-04-23T09:05:56.003Z,191.25
2019-04-23T09:06:53.120Z,191.25
2019-04-23T09:08:04.035Z,185.63
2019-04-23T09:08:50.017Z,191.25
2019-04-23T09:09:56.762Z,185.63
2019-04-23T09:11:01.950Z,191.25
2019-04-23T09:13:00.794Z,185.63
2019-04-23T09:14:53.848Z,185.63
2019-04-23T09:15:51.802Z,185.63
2019-04-23T09:16:51.425Z,180.00
2019-04-23T09:17:56.285Z,185.63
2019-04-23T09:18:55.993Z,180.00
2019-04-23T09:20:15.126Z,180.00
2019-04-23T09:20:51.232Z,180.00
2019-04-23T09:22:05.945Z,180.00
2019-04-23T09:23:01.992Z,180.00
2019-04-23T09:23:54.480Z,185.63
2019-04-23T09:24:57.447Z,180.00
2019-04-23T09:26:08.905Z,180.00
2019-04-23T09:26:51.754Z,180.00
2019-04-23T09:27:54.785Z,180.00
2019-04-23T09:30:11.075Z,180.00
2019-04-23T09:31:00.880Z,180.00
2019-04-23T09:32:51.616Z,180.00
2019-04-23T09:33:54.845Z,180.00
2019-04-23T09:34:58.925Z,180.00
2019-04-23T09:35:55.412Z,180.00
2019-04-23T09:37:00.199Z,180.00
2019-04-23T09:37:58.235Z,180.00
2019-04-23T09:38:55.829Z,180.00
2019-04-23T09:39:58.936Z,180.00
2019-04-23T09:41:04.361Z,180.00
2019-04-23T09:41:42.334Z,180.00
2019-04-23T09:42:54.391Z,180.00
2019-04-23T09:43:57.868Z,174.38
2019-04-23T09:45:00.062Z,174.38
2019-04-23T09:45:57.481Z,174.38
2019-04-23T09:46:53.304Z,174.38
2019-04-23T09:47:57.271Z,180.00
2019-04-23T09:48:58.194Z,174.38
2019-04-23T09:49:53.958Z,174.38
2019-04-23T09:51:51.347Z,174.38
2019-04-23T09:53:04.913Z,174.38
2019-04-23T09:53:51.202Z,174.38
2019-04-23T09:54:56.132Z,174.38
2019-04-23T09:55:59.733Z,174.38
2019-04-23T09:56:52.669Z,174.38
2019-04-23T09:57:55.543Z,174.38
2019-04-23T09:58:52.207Z,174.38
2019-04-23T09:59:51.098Z,174.38
2019-04-23T10:00:45.475Z,174.38
2019-04-23T10:01:48.353Z,174.38
2019-04-23T10:02:41.440Z,174.38
2019-04-23T10:03:38.729Z,174.38
2019-04-23T10:04:39.823Z,174.38
2019-04-23T10:05:33.954Z,174.38
2019-04-23T10:06:30.349Z,168.75
2019-04-23T10:07:34.976Z,174.38
2019-04-23T10:08:31.974Z,174.38
2019-04-23T10:09:27.432Z,174.38
2019-04-23T10:10:25.960Z,174.38
2019-04-23T10:11:24.423Z,174.38
2019-04-23T10:12:24.888Z,174.38
2019-04-23T10:13:24.325Z,174.38
2019-04-23T10:14:24.302Z,174.38
2019-04-23T10:15:30.474Z,180.00
2019-04-23T10:16:27.663Z,174.38
2019-04-23T10:17:24.432Z,180.00
2019-04-23T10:18:24.551Z,180.00
2019-04-23T10:19:24.726Z,180.00
2019-04-23T10:20:24.810Z,180.00
2019-04-23T10:21:25.547Z,180.00
2019-04-23T10:22:25.147Z,180.00
2019-04-23T10:23:25.164Z,180.00
2019-04-23T10:24:25.354Z,185.63
2019-04-23T10:25:25.668Z,180.00
2019-04-23T10:26:24.267Z,180.00
2019-04-23T10:27:25.162Z,180.00
2019-04-23T10:28:24.652Z,180.00
2019-04-23T10:29:25.378Z,185.63
2019-04-23T10:30:24.260Z,185.63
2019-04-23T10:31:25.155Z,185.63
2019-04-23T10:32:25.470Z,185.63
2019-04-23T10:33:25.471Z,185.63
2019-04-23T10:34:25.361Z,185.63
2019-04-23T10:35:35.369Z,185.63
2019-04-23T10:36:27.668Z,185.63
2019-04-23T10:37:34.115Z,185.63
2019-04-23T10:38:26.239Z,191.25
2019-04-23T10:39:30.382Z,191.25
2019-04-23T10:40:31.433Z,191.25
2019-04-23T10:41:25.690Z,196.88
2019-04-23T10:42:25.391Z,196.88
2019-04-23T10:43:25.047Z,196.88
2019-04-23T10:44:25.599Z,196.88
2019-04-23T10:45:35.384Z,196.88
2019-04-23T10:46:43.580Z,196.88
2019-04-23T10:47:58.965Z,196.88
2019-04-23T10:49:22.507Z,196.88
2019-04-23T10:49:52.936Z,196.88
2019-04-23T10:51:51.088Z,196.88
2019-04-23T10:52:56.637Z,196.88
2019-04-23T10:53:50.608Z,196.88
2019-04-23T10:54:46.926Z,202.50
2019-04-23T10:56:53.211Z,196.88
2019-04-23T10:57:50.391Z,202.50
2019-04-23T10:58:45.567Z,202.50
2019-04-23T10:59:47.440Z,202.50
2019-04-23T11:00:53.541Z,202.50
2019-04-23T11:01:53.089Z,202.50
2019-04-23T11:02:47.322Z,202.50
2019-04-23T11:05:35.910Z,202.50
2019-04-23T11:06:49.971Z,202.50
2019-04-23T11:07:42.059Z,208.13
2019-04-23T11:08:50.136Z,208.13
2019-04-23T11:10:51.348Z,202.50
2019-04-23T11:11:53.747Z,208.13
2019-04-23T11:12:44.848Z,208.13
2019-04-23T11:13:53.445Z,208.13
2019-04-23T11:14:57.927Z,208.13
2019-04-23T11:16:15.354Z,219.38
2019-04-23T11:16:57.998Z,230.63
2019-04-23T11:18:00.476Z,225.00
2019-04-23T11:18:56.903Z,230.63
2019-04-23T11:19:56.721Z,236.25
2019-04-23T11:20:58.257Z,253.13
2019-04-23T11:23:59.953Z,225.00
2019-04-23T11:25:48.575Z,225.00
2019-04-23T11:27:01.930Z,219.38
2019-04-23T11:28:55.577Z,219.38
2019-04-23T11:30:05.704Z,219.38
2019-04-23T11:31:52.637Z,225.00
2019-04-23T11:33:00.925Z,230.63
2019-04-23T11:36:22.290Z,253.13
2019-04-23T11:38:15.781Z,241.88
2019-04-23T11:40:03.909Z,292.50
2019-04-23T11:40:54.225Z,309.38
2019-04-23T11:41:59.174Z,315.00
2019-04-23T11:43:03.912Z,303.75
2019-04-23T11:44:13.445Z,286.88
2019-04-23T11:44:57.729Z,275.63
2019-04-23T11:45:56.327Z,270.00
2019-04-23T11:50:01.504Z,225.00
2019-04-23T11:52:04.454Z,270.00
2019-04-23T11:52:56.810Z,292.50
2019-04-23T11:53:55.878Z,309.38
2019-04-23T11:54:53.028Z,320.63
2019-04-23T11:55:53.318Z,331.88
2019-04-23T11:58:08.392Z,348.75
2019-04-23T11:58:52.467Z,331.88
2019-04-23T12:01:02.339Z,303.75
2019-04-23T12:01:53.152Z,292.50
2019-04-23T12:02:59.169Z,286.88
2019-04-23T12:04:07.086Z,286.88
2019-04-23T12:05:01.028Z,292.50
2019-04-23T12:05:58.272Z,298.13
2019-04-23T12:06:52.769Z,292.50
2019-04-23T12:07:52.000Z,292.50
2019-04-23T12:08:50.856Z,292.50
2019-04-23T12:11:25.635Z,225.00
2019-04-23T12:12:10.507Z,213.75
2019-04-23T12:12:44.637Z,264.38
2019-04-23T12:14:02.407Z,264.38
2019-04-23T12:15:13.317Z,286.88
2019-04-23T12:15:53.847Z,253.13
2019-04-23T12:16:57.349Z,298.13
2019-04-23T12:17:50.868Z,286.88
2019-04-23T12:19:14.272Z,326.25
2019-04-23T12:19:57.678Z,315.00
2019-04-23T12:20:49.436Z,303.75
2019-04-23T12:23:54.775Z,343.13
2019-04-23T12:25:58.699Z,315.00
2019-04-23T12:27:01.128Z,292.50
2019-04-23T12:27:39.121Z,281.25
2019-04-23T12:28:57.726Z,270.00
2019-04-23T12:30:50.522Z,286.88
2019-04-23T12:31:56.991Z,286.88
2019-04-23T12:35:44.122Z,354.38
2019-04-23T12:37:10.109Z,376.88
2019-04-23T12:38:06.942Z,393.75
2019-04-23T12:38:50.330Z,405.00
2019-04-23T12:40:01.384Z,393.75
2019-04-23T12:40:51.306Z,433.13
2019-04-23T12:41:51.088Z,421.88
2019-04-23T12:43:53.385Z,376.88
2019-04-23T12:44:56.535Z,360.00
2019-04-23T12:45:47.390Z,376.88
2019-04-23T12:46:54.274Z,337.50
2019-04-23T12:48:57.056Z,354.38
2019-04-23T12:51:53.996Z,286.88
2019-04-23T12:53:48.471Z,270.00
2019-04-23T12:57:09.082Z,219.38
2019-04-23T12:58:46.522Z,202.50
2019-04-23T12:59:49.849Z,230.63
2019-04-23T13:00:52.744Z,208.13
2019-04-23T13:01:55.861Z,191.25
2019-04-23T13:03:02.588Z,191.25
2019-04-23T13:03:47.393Z,213.75
2019-04-23T13:04:51.631Z,236.25
2019-04-23T13:05:46.079Z,241.88
2019-04-23T13:06:51.014Z,241.88
2019-04-23T13:08:13.639Z,241.88
2019-04-23T13:08:54.630Z,270.00
2019-04-23T13:11:49.980Z,202.50
2019-04-23T13:13:53.243Z,202.50
2019-04-23T13:14:56.082Z,202.50
2019-04-23T13:17:01.897Z,219.38
2019-04-23T13:18:49.881Z,275.63
2019-04-23T13:19:54.735Z,298.13
2019-04-23T13:20:42.199Z,309.38
2019-04-23T13:22:07.470Z,320.63
2019-04-23T13:22:54.837Z,331.88
2019-04-23T13:23:47.427Z,331.88
2019-04-23T13:24:57.851Z,326.25
2019-04-23T13:25:54.159Z,309.38
2019-04-23T13:26:58.233Z,309.38
2019-04-23T13:29:11.375Z,343.13
2019-04-23T13:30:56.619Z,348.75
2019-04-23T13:31:52.365Z,360.00
2019-04-23T13:33:07.998Z,376.88
2019-04-23T13:34:11.047Z,388.13
2019-04-23T13:35:05.175Z,399.38
2019-04-23T13:36:52.425Z,399.38
2019-04-23T13:39:51.903Z,331.88
2019-04-23T13:40:59.677Z,343.13
2019-04-23T13:41:58.581Z,343.13
2019-04-23T13:42:57.257Z,309.38
2019-04-23T13:45:00.516Z,315.00
2019-04-23T13:46:49.466Z,320.63
2019-04-23T13:48:06.094Z,309.38
2019-04-23T13:48:48.971Z,275.63
2019-04-23T13:49:57.082Z,270.00
2019-04-23T13:51:57.224Z,264.38
2019-04-23T13:53:07.812Z,281.25
2019-04-23T13:55:44.383Z,309.38
2019-04-23T13:57:27.102Z,286.88
2019-04-23T13:58:59.705Z,286.88
2019-04-23T13:59:55.988Z,292.50
2019-04-23T14:01:01.170Z,286.88
2019-04-23T14:01:52.281Z,292.50
2019-04-23T14:02:51.267Z,303.75
2019-04-23T14:03:59.969Z,326.25
2019-04-23T14:05:06.365Z,348.75
2019-04-23T14:05:51.185Z,360.00
2019-04-23T14:06:55.528Z,348.75
2019-04-23T14:07:54.204Z,337.50
2019-04-23T14:10:05.104Z,320.63
2019-04-23T14:10:55.429Z,298.13
2019-04-23T14:11:46.700Z,286.88
2019-04-23T14:13:10.801Z,275.63
2019-04-23T14:14:58.043Z,264.38
2019-04-23T14:17:19.841Z,241.88
2019-04-23T14:18:10.763Z,219.38
2019-04-23T14:18:58.512Z,202.50
2019-04-23T14:19:53.793Z,191.25
2019-04-23T14:20:53.519Z,185.63
2019-04-23T14:21:59.310Z,180.00
2019-04-23T14:23:08.648Z,180.00
2019-04-23T14:25:04.806Z,174.38
2019-04-23T14:26:46.353Z,157.50
2019-04-23T14:28:00.191Z,151.88
2019-04-23T14:29:56.570Z,146.25
2019-04-23T14:30:59.185Z,151.88
2019-04-23T14:31:57.494Z,168.75
2019-04-23T14:32:54.130Z,191.25
2019-04-23T14:34:00.178Z,219.38
2019-04-23T14:35:04.807Z,236.25
2019-04-23T14:35:56.450Z,241.88
2019-04-23T14:36:57.680Z,236.25
2019-04-23T14:38:09.436Z,236.25
2019-04-23T14:38:59.519Z,241.88
2019-04-23T14:39:52.967Z,253.13
2019-04-23T14:41:05.129Z,253.13
2019-04-23T14:41:54.048Z,247.50
2019-04-23T14:43:03.437Z,236.25
2019-04-23T14:44:00.498Z,225.00
2019-04-23T14:45:09.964Z,219.38
2019-04-23T14:46:32.207Z,213.75
2019-04-23T14:47:03.470Z,196.88
2019-04-23T14:47:59.117Z,180.00
2019-04-23T14:49:11.624Z,163.13
2019-04-23T14:50:18.571Z,151.88
2019-04-23T14:50:54.561Z,146.25
2019-04-23T14:51:51.722Z,135.00
2019-04-23T14:52:57.180Z,123.75
2019-04-23T14:53:48.343Z,123.75
2019-04-23T14:55:35.445Z,123.75
2019-04-23T14:56:56.835Z,123.75
2019-04-23T14:58:07.936Z,118.13
2019-04-23T14:59:04.491Z,112.50
2019-04-23T14:59:57.395Z,112.50
2019-04-23T15:01:07.246Z,112.50
2019-04-23T15:02:59.624Z,106.88
2019-04-23T15:03:49.461Z,101.25
2019-04-23T15:04:54.149Z,95.63
2019-04-23T15:06:06.715Z,95.63
2019-04-23T15:07:51.388Z,95.63
2019-04-23T15:09:00.629Z,95.63
2019-04-23T15:11:06.356Z,78.75
2019-04-23T15:12:02.215Z,78.75
2019-04-23T15:12:54.441Z,78.75
2019-04-23T15:13:51.915Z,78.75
2019-04-23T15:15:02.826Z,78.75
2019-04-23T15:16:04.270Z,78.75
2019-04-23T15:16:54.875Z,84.38
2019-04-23T15:19:07.928Z,90.00
2019-04-23T15:21:08.626Z,95.63
2019-04-23T15:23:17.139Z,78.75
2019-04-23T15:24:00.940Z,67.50
2019-04-23T15:25:01.354Z,61.88
2019-04-23T15:26:22.619Z,61.88
2019-04-23T15:28:32.604Z,50.63
2019-04-23T15:29:45.016Z,45.00
2019-04-23T15:30:57.104Z,45.00
2019-04-23T15:31:59.347Z,39.38
2019-04-23T15:33:03.785Z,39.38